Time;durP1;ratioP1;P1;durP2;ratioP2;P2;SDS_P1;SDS_P2;PMS_P1;PMS_P2;Temp;Humidity;BMP_temperature;BMP_pressure;BME280_temperature;BME280_humidity;BME280_pressure;Samples;Min_cycle;Max_cycle;Signal;HPM_P1;HPM_P2
2021/03/07 00:00:58;;;;;;;10.63;7.40;;;2.80;83.60;;;;;;5023263;28;20207;-81
2021/03/07 00:03:26;;;;;;;9.83;7.47;;;2.80;83.60;;;;;;5020493;28;20206;-83
2021/03/07 00:05:53;;;;;;;9.40;6.93;;;2.70;83.60;;;;;;5024458;28;20254;-81
2021/03/07 00:08:21;;;;;;;9.60;6.77;;;2.70;83.70;;;;;;5017603;28;20272;-83
2021/03/07 00:10:51;;;;;;;8.50;6.30;;;2.80;83.50;;;;;;5017448;28;20624;-83
2021/03/07 00:13:20;;;;;;;7.63;6.57;;;2.80;83.60;;;;;;5023486;28;20294;-83
2021/03/07 00:15:48;;;;;;;9.23;6.33;;;2.80;83.60;;;;;;5018204;28;20231;-84
2021/03/07 00:18:16;;;;;;;9.23;5.80;;;2.80;83.50;;;;;;5029735;28;20200;-83
2021/03/07 00:20:44;;;;;;;8.60;6.07;;;2.80;83.30;;;;;;5011245;28;20277;-82
2021/03/07 00:23:12;;;;;;;9.33;6.03;;;2.90;83.50;;;;;;5007905;28;20266;-81
2021/03/07 00:25:39;;;;;;;9.50;6.20;;;2.90;83.50;;;;;;5026450;28;20263;-81
2021/03/07 00:28:07;;;;;;;8.63;5.70;;;2.90;83.40;;;;;;5010995;28;20846;-81
2021/03/07 00:30:38;;;;;;;10.07;7.03;;;2.90;83.50;;;;;;5005774;28;20205;-82
2021/03/07 00:33:06;;;;;;;10.57;7.00;;;2.90;83.40;;;;;;5007593;28;20273;-82
2021/03/07 00:35:34;;;;;;;8.90;6.20;;;2.90;83.40;;;;;;5006483;28;20243;-86
2021/03/07 00:38:02;;;;;;;10.07;7.33;;;2.80;83.50;;;;;;5021903;28;20657;-81
2021/03/07 00:40:30;;;;;;;8.93;6.77;;;2.80;83.60;;;;;;4985014;28;20203;-83
2021/03/07 00:42:58;;;;;;;8.27;7.13;;;2.90;83.60;;;;;;5004987;28;20207;-83
2021/03/07 00:45:26;;;;;;;8.73;7.03;;;2.90;83.80;;;;;;5008093;28;20235;-82
2021/03/07 00:47:56;;;;;;;9.57;7.00;;;2.90;83.70;;;;;;5023574;28;20194;-82
2021/03/07 00:50:25;;;;;;;12.73;7.63;;;2.90;83.90;;;;;;5029596;28;20339;-81
2021/03/07 00:52:55;;;;;;;9.67;6.77;;;2.80;84.10;;;;;;5014680;28;20187;-80
2021/03/07 00:55:23;;;;;;;8.40;7.37;;;2.80;84.20;;;;;;5025670;28;20226;-82
2021/03/07 00:57:52;;;;;;;10.63;7.37;;;2.80;84.30;;;;;;5017223;28;20378;-84
2021/03/07 01:00:23;;;;;;;9.40;6.90;;;2.70;84.50;;;;;;5025104;28;20209;-83
2021/03/07 01:02:50;;;;;;;10.00;7.10;;;2.80;84.80;;;;;;5015647;28;20207;-82
2021/03/07 01:05:20;;;;;;;9.47;6.70;;;3.00;84.80;;;;;;4994285;28;20310;-82
2021/03/07 01:07:48;;;;;;;8.20;6.20;;;2.80;84.80;;;;;;5011208;28;20235;-83
2021/03/07 01:10:18;;;;;;;11.53;7.10;;;2.80;85.00;;;;;;5015154;28;20314;-83
2021/03/07 01:12:48;;;;;;;8.67;7.20;;;2.80;85.10;;;;;;5012028;28;20287;-82
2021/03/07 01:15:17;;;;;;;9.57;6.60;;;2.80;85.30;;;;;;5009376;28;20378;-82
2021/03/07 01:17:45;;;;;;;8.07;6.70;;;2.70;85.50;;;;;;5001413;28;20223;-81
2021/03/07 01:20:15;;;;;;;11.20;7.00;;;2.70;85.70;;;;;;5008853;28;20212;-82
2021/03/07 01:22:54;;;;;;;7.77;6.00;;;2.80;85.90;;;;;;5003086;28;20211;-81
2021/03/07 01:25:23;;;;;;;9.47;6.30;;;2.80;85.90;;;;;;5006256;28;20215;-83
2021/03/07 01:27:50;;;;;;;9.13;6.10;;;2.80;86.10;;;;;;5018308;28;20209;-81
2021/03/07 01:30:21;;;;;;;9.17;5.80;;;2.80;86.30;;;;;;4989811;28;20200;-82
2021/03/07 01:32:49;;;;;;;10.27;6.40;;;2.80;86.40;;;;;;5008226;28;20812;-81
2021/03/07 01:35:18;;;;;;;10.20;6.57;;;2.80;86.40;;;;;;5016900;28;20294;-82
2021/03/07 01:37:46;;;;;;;7.93;6.47;;;2.80;86.50;;;;;;5027702;28;20212;-82
2021/03/07 01:40:17;;;;;;;8.67;6.30;;;2.80;86.70;;;;;;5027854;28;20301;-82
2021/03/07 01:42:46;;;;;;;8.73;6.17;;;2.80;86.70;;;;;;4990959;28;20208;-81
2021/03/07 01:45:17;;;;;;;7.73;6.13;;;2.80;87.00;;;;;;5012759;28;20216;-82
2021/03/07 01:47:51;;;;;;;9.70;6.07;;;2.80;87.20;;;;;;5003107;28;20287;-81
2021/03/07 01:50:22;;;;;;;9.10;5.97;;;2.80;87.10;;;;;;5017144;28;20820;-81
2021/03/07 01:52:50;;;;;;;10.50;7.30;;;2.80;87.00;;;;;;5017888;28;20291;-84
2021/03/07 01:55:21;;;;;;;10.00;6.83;;;2.90;87.40;;;;;;5022719;28;20237;-82
2021/03/07 01:57:57;;;;;;;13.17;7.20;;;2.80;87.30;;;;;;5016528;28;20207;-82
2021/03/07 02:00:25;;;;;;;8.20;6.37;;;2.80;87.40;;;;;;5015230;28;20576;-82
2021/03/07 02:02:54;;;;;;;8.00;6.37;;;2.90;87.60;;;;;;5006737;28;20568;-83
2021/03/07 02:05:22;;;;;;;11.63;7.73;;;2.90;87.60;;;;;;4987308;28;20227;-83
2021/03/07 02:07:53;;;;;;;8.33;6.50;;;2.90;87.60;;;;;;5004371;28;20563;-82
2021/03/07 02:10:24;;;;;;;6.53;5.40;;;3.10;87.60;;;;;;5003402;28;20204;-82
2021/03/07 02:12:54;;;;;;;12.97;7.00;;;2.90;87.90;;;;;;5019273;28;20222;-80
2021/03/07 02:15:23;;;;;;;8.90;7.23;;;2.90;88.00;;;;;;5010122;28;20290;-83
2021/03/07 02:17:55;;;;;;;12.67;7.97;;;2.90;88.10;;;;;;5002701;28;20222;-82
2021/03/07 02:20:25;;;;;;;11.73;8.53;;;3.00;88.00;;;;;;5008566;28;20759;-81
2021/03/07 02:22:58;;;;;;;10.40;8.13;;;3.00;88.00;;;;;;5003680;28;20503;-82
2021/03/07 02:25:29;;;;;;;13.20;8.33;;;2.90;88.00;;;;;;5015973;28;20606;-82
2021/03/07 02:27:58;;;;;;;10.13;8.00;;;3.00;88.20;;;;;;5011806;28;20757;-82
2021/03/07 02:30:28;;;;;;;13.37;8.60;;;3.00;88.20;;;;;;5009769;28;20314;-80
2021/03/07 02:33:06;;;;;;;9.70;6.43;;;3.00;88.20;;;;;;5000678;28;20573;-83
2021/03/07 02:35:37;;;;;;;10.53;7.47;;;2.90;88.40;;;;;;5009901;28;20226;-83
2021/03/07 02:38:07;;;;;;;11.17;8.10;;;2.90;88.50;;;;;;5011927;28;20207;-81
2021/03/07 02:40:37;;;;;;;12.97;8.73;;;2.90;88.40;;;;;;5008214;28;20199;-80
2021/03/07 02:43:13;;;;;;;11.13;7.63;;;2.90;88.40;;;;;;5004187;28;20212;-82
2021/03/07 02:45:44;;;;;;;10.27;7.93;;;2.90;88.60;;;;;;5008894;28;20660;-82
2021/03/07 02:48:14;;;;;;;9.07;6.93;;;2.90;88.50;;;;;;5014427;28;20180;-82
2021/03/07 02:50:45;;;;;;;11.53;7.77;;;3.00;88.30;;;;;;5011207;28;20291;-81
2021/03/07 02:53:18;;;;;;;13.57;8.90;;;3.00;88.30;;;;;;4999638;28;20209;-81
2021/03/07 02:55:51;;;;;;;10.77;7.70;;;3.00;88.10;;;;;;5005874;28;20304;-80
2021/03/07 02:58:20;;;;;;;10.20;7.60;;;3.00;88.20;;;;;;5002277;28;20954;-81
2021/03/07 03:00:53;;;;;;;10.93;6.97;;;2.90;88.10;;;;;;5001213;28;20200;-83
2021/03/07 03:03:26;;;;;;;11.63;7.83;;;2.90;88.20;;;;;;4999669;28;20204;-82
2021/03/07 03:05:53;;;;;;;11.90;7.70;;;2.90;88.10;;;;;;5005284;28;20858;-82
2021/03/07 03:08:23;;;;;;;12.63;7.47;;;3.00;88.10;;;;;;5002270;28;20711;-81
2021/03/07 03:10:55;;;;;;;8.37;6.90;;;3.00;88.00;;;;;;5009108;28;20200;-82
2021/03/07 03:13:33;;;;;;;11.73;8.03;;;3.00;87.80;;;;;;5001486;28;20264;-81
2021/03/07 03:16:03;;;;;;;10.70;7.27;;;3.00;87.60;;;;;;5011147;28;20237;-82
2021/03/07 03:18:32;;;;;;;10.20;6.97;;;3.10;87.50;;;;;;5000871;28;20215;-82
2021/03/07 03:21:03;;;;;;;12.03;7.30;;;3.10;87.30;;;;;;5006045;28;20205;-83
2021/03/07 03:23:31;;;;;;;9.47;7.10;;;3.10;87.10;;;;;;5006052;28;20200;-80
2021/03/07 03:26:02;;;;;;;10.90;6.23;;;3.10;87.20;;;;;;5024423;28;20187;-83
2021/03/07 03:28:30;;;;;;;8.97;6.60;;;3.10;87.10;;;;;;5027765;28;20241;-81
2021/03/07 03:30:58;;;;;;;7.60;6.43;;;3.10;87.10;;;;;;5026377;28;20188;-83
2021/03/07 03:33:26;;;;;;;9.47;6.83;;;3.10;87.10;;;;;;5025485;28;20203;-82
2021/03/07 03:35:55;;;;;;;8.27;5.30;;;3.10;86.90;;;;;;5026589;28;20235;-81
2021/03/07 03:38:30;;;;;;;10.03;6.73;;;3.10;87.00;;;;;;5007566;28;20205;-81
2021/03/07 03:40:59;;;;;;;9.07;5.57;;;3.10;87.00;;;;;;5011948;28;20211;-82
2021/03/07 03:43:28;;;;;;;10.90;6.03;;;3.20;86.60;;;;;;5003027;28;20706;-81
2021/03/07 03:46:01;;;;;;;8.50;6.47;;;3.20;86.40;;;;;;5012548;28;20203;-81
2021/03/07 03:48:32;;;;;;;9.90;6.17;;;3.20;86.30;;;;;;5013098;28;20208;-82
2021/03/07 03:51:02;;;;;;;7.67;6.00;;;3.10;86.50;;;;;;5015031;28;20251;-83
2021/03/07 03:53:34;;;;;;;9.30;6.13;;;3.10;86.40;;;;;;5010853;28;20207;-82
2021/03/07 03:56:02;;;;;;;7.63;5.97;;;3.10;86.30;;;;;;5007886;28;20235;-83
2021/03/07 03:58:37;;;;;;;8.67;6.10;;;3.10;86.30;;;;;;5002992;28;20503;-82
2021/03/07 04:01:08;;;;;;;8.47;6.30;;;2.90;86.20;;;;;;5004304;28;20214;-81
2021/03/07 04:03:36;;;;;;;7.10;5.70;;;3.10;86.30;;;;;;5003765;28;20230;-83
2021/03/07 04:06:06;;;;;;;8.00;6.47;;;3.30;86.50;;;;;;5001709;28;20235;-83
2021/03/07 04:08:36;;;;;;;11.87;6.20;;;3.10;86.60;;;;;;5000505;28;20200;-82
2021/03/07 04:11:04;;;;;;;9.77;6.67;;;3.10;86.80;;;;;;5004536;28;20235;-82
2021/03/07 04:13:33;;;;;;;8.40;5.60;;;3.10;86.90;;;;;;5001483;28;20281;-81
2021/03/07 04:16:01;;;;;;;10.20;6.73;;;3.10;86.80;;;;;;5024994;28;20258;-82
2021/03/07 04:18:29;;;;;;;8.63;6.80;;;3.10;87.00;;;;;;5023079;28;20212;-83
2021/03/07 04:21:00;;;;;;;10.67;6.03;;;3.20;87.00;;;;;;5030239;28;20406;-83
2021/03/07 04:23:28;;;;;;;11.17;6.60;;;3.20;86.80;;;;;;5002943;28;20596;-83
2021/03/07 04:25:55;;;;;;;9.80;6.20;;;3.20;86.90;;;;;;4982899;28;20222;-81
2021/03/07 04:28:24;;;;;;;8.47;6.37;;;3.20;86.70;;;;;;5008426;28;20722;-83
2021/03/07 04:30:54;;;;;;;9.50;6.47;;;3.20;86.80;;;;;;5004087;28;20211;-81
2021/03/07 04:33:21;;;;;;;10.30;6.53;;;3.20;86.70;;;;;;5008982;28;20228;-83
2021/03/07 04:35:49;;;;;;;11.43;6.67;;;3.20;86.70;;;;;;5012780;28;20681;-82
2021/03/07 04:38:18;;;;;;;7.47;6.53;;;3.20;86.70;;;;;;5007257;28;20200;-82
2021/03/07 04:40:46;;;;;;;10.50;6.53;;;3.20;86.70;;;;;;5009932;28;20200;-82
2021/03/07 04:43:13;;;;;;;9.63;6.00;;;3.20;86.80;;;;;;5003432;28;20218;-82
2021/03/07 04:45:41;;;;;;;7.97;6.67;;;3.20;86.80;;;;;;5007676;28;20204;-82
2021/03/07 04:48:10;;;;;;;7.10;6.00;;;3.20;86.70;;;;;;5012531;28;20296;-82
2021/03/07 04:50:38;;;;;;;10.27;6.83;;;3.20;86.80;;;;;;5002688;28;20654;-83
2021/03/07 04:53:08;;;;;;;9.47;6.50;;;3.10;86.90;;;;;;5007172;28;20654;-81
2021/03/07 04:55:36;;;;;;;9.73;6.47;;;3.20;86.90;;;;;;5005629;28;20226;-82
2021/03/07 04:58:03;;;;;;;9.47;6.10;;;3.20;86.90;;;;;;5028889;28;20273;-83
2021/03/07 05:00:31;;;;;;;8.67;6.07;;;3.20;86.70;;;;;;5018181;28;20258;-81
2021/03/07 05:02:58;;;;;;;6.97;5.97;;;3.30;86.50;;;;;;5003790;28;20203;-82
2021/03/07 05:05:27;;;;;;;8.30;6.43;;;3.20;86.50;;;;;;5009809;28;20317;-82
2021/03/07 05:07:58;;;;;;;8.50;6.50;;;3.20;86.60;;;;;;5004059;28;20225;-82
2021/03/07 05:10:25;;;;;;;9.97;5.97;;;3.20;86.60;;;;;;4989324;28;20210;-80
2021/03/07 05:12:53;;;;;;;6.60;5.07;;;3.20;86.40;;;;;;5006460;28;20204;-81
2021/03/07 05:15:20;;;;;;;6.93;5.83;;;3.20;86.50;;;;;;5005957;28;20316;-83
2021/03/07 05:17:48;;;;;;;6.90;6.17;;;3.30;86.40;;;;;;5010776;28;20216;-82
2021/03/07 05:20:16;;;;;;;8.53;5.97;;;3.20;86.10;;;;;;5015631;28;20291;-79
2021/03/07 05:22:44;;;;;;;7.87;5.77;;;3.30;86.20;;;;;;5018298;28;20232;-82
2021/03/07 05:25:14;;;;;;;7.23;5.90;;;3.30;86.20;;;;;;5016547;28;20225;-83
2021/03/07 05:27:42;;;;;;;8.53;5.73;;;3.30;86.10;;;;;;5012341;28;20307;-82
2021/03/07 05:30:11;;;;;;;8.77;6.20;;;3.30;86.10;;;;;;5023576;28;20207;-81
2021/03/07 05:32:38;;;;;;;10.03;6.67;;;3.40;86.00;;;;;;5011811;28;20870;-83
2021/03/07 05:35:07;;;;;;;8.70;6.30;;;3.30;85.90;;;;;;5019818;28;20656;-81
2021/03/07 05:37:35;;;;;;;8.23;6.20;;;3.40;85.80;;;;;;5011822;28;20195;-82
2021/03/07 05:40:04;;;;;;;8.40;6.57;;;3.40;85.90;;;;;;5017735;28;20236;-82
2021/03/07 05:42:34;;;;;;;8.70;6.70;;;3.30;85.80;;;;;;5021936;28;20197;-83
2021/03/07 05:45:11;;;;;;;10.80;6.73;;;3.30;85.70;;;;;;5012722;28;20688;-82
2021/03/07 05:47:38;;;;;;;8.20;7.10;;;3.30;85.70;;;;;;5011209;28;20215;-84
2021/03/07 05:50:08;;;;;;;7.83;5.97;;;3.20;85.60;;;;;;5004377;28;20196;-82
2021/03/07 05:52:36;;;;;;;8.07;6.40;;;3.30;85.30;;;;;;5009814;28;20200;-83
2021/03/07 05:55:06;;;;;;;7.97;6.17;;;3.30;85.20;;;;;;5005963;28;20636;-81
2021/03/07 05:57:36;;;;;;;6.73;5.80;;;3.30;85.00;;;;;;5019020;28;20206;-81
2021/03/07 06:00:05;;;;;;;6.50;5.50;;;3.30;84.70;;;;;;5015189;28;20220;-81
2021/03/07 06:02:32;;;;;;;7.63;5.33;;;3.30;84.80;;;;;;5012087;28;20695;-83
2021/03/07 06:05:00;;;;;;;5.83;4.87;;;3.30;84.80;;;;;;5025839;28;20224;-82
2021/03/07 06:07:35;;;;;;;6.87;5.30;;;3.30;84.70;;;;;;5028935;28;20576;-82
2021/03/07 06:10:18;;;;;;;9.63;5.77;;;3.30;84.50;;;;;;5023258;28;20202;-82
2021/03/07 06:12:57;;;;;;;6.00;5.27;;;3.40;84.60;;;;;;5024206;28;20212;-80
2021/03/07 06:15:47;;;;;;;9.27;5.77;;;3.30;84.70;;;;;;5017890;28;20519;-82
2021/03/07 06:18:16;;;;;;;7.43;5.73;;;3.30;84.80;;;;;;5016855;28;20235;-82
2021/03/07 06:20:45;;;;;;;9.27;6.53;;;3.30;85.10;;;;;;5008350;28;20203;-83
2021/03/07 06:23:12;;;;;;;9.33;6.57;;;3.30;85.10;;;;;;5010387;28;20289;-82
2021/03/07 06:25:49;;;;;;;8.23;6.30;;;3.20;85.20;;;;;;5007876;28;20306;-80
2021/03/07 06:28:22;;;;;;;7.70;6.30;;;3.30;85.20;;;;;;5008976;28;20204;-82
2021/03/07 06:30:50;;;;;;;8.30;6.13;;;3.30;85.60;;;;;;5008812;28;20208;-82
2021/03/07 06:33:31;;;;;;;10.67;6.40;;;3.20;85.60;;;;;;5013085;28;20220;-80
2021/03/07 06:36:15;;;;;;;7.00;5.10;;;3.20;85.60;;;;;;5026832;28;20263;-83
2021/03/07 06:38:49;;;;;;;11.50;4.70;;;3.30;84.90;;;;;;5016970;28;20475;-81
2021/03/07 06:41:21;;;;;;;6.30;4.83;;;3.30;84.70;;;;;;5011993;28;20207;-82
2021/03/07 06:43:49;;;;;;;6.00;5.40;;;3.30;84.30;;;;;;5010298;28;20219;-83
2021/03/07 06:46:30;;;;;;;6.07;4.40;;;3.30;83.90;;;;;;5013289;28;20214;-81
2021/03/07 06:48:59;;;;;;;4.80;4.10;;;3.30;83.40;;;;;;5022295;28;20199;-82
2021/03/07 06:51:29;;;;;;;6.47;4.33;;;3.50;83.10;;;;;;5007063;28;20204;-82
2021/03/07 06:53:58;;;;;;;6.00;4.33;;;3.40;82.70;;;;;;5010060;28;20300;-82
2021/03/07 06:56:44;;;;;;;5.33;4.77;;;3.50;82.80;;;;;;5031708;28;20489;-83
2021/03/07 06:59:16;;;;;;;5.07;4.30;;;3.50;83.20;;;;;;5027869;28;20188;-80
2021/03/07 07:01:46;;;;;;;5.93;5.33;;;3.50;83.50;;;;;;5026276;28;20712;-83
2021/03/07 07:04:15;;;;;;;7.60;4.90;;;3.50;83.70;;;;;;5012013;28;20200;-80
2021/03/07 07:06:43;;;;;;;6.47;5.03;;;3.50;84.00;;;;;;5012197;28;20314;-81
2021/03/07 07:09:12;;;;;;;7.47;4.80;;;3.50;84.20;;;;;;5004303;28;20744;-82
2021/03/07 07:11:45;;;;;;;7.00;5.03;;;3.40;84.40;;;;;;5012258;28;20518;-82
2021/03/07 07:14:27;;;;;;;5.40;4.90;;;3.40;84.50;;;;;;5011095;28;20228;-82
2021/03/07 07:16:55;;;;;;;6.50;5.13;;;3.40;84.50;;;;;;5009118;28;20311;-80
2021/03/07 07:19:24;;;;;;;6.27;4.70;;;3.40;84.60;;;;;;5019843;28;20398;-81
2021/03/07 07:21:54;;;;;;;6.03;5.30;;;3.40;84.60;;;;;;5024754;28;20197;-82
2021/03/07 07:24:23;;;;;;;6.33;5.27;;;3.40;84.40;;;;;;5010889;28;20197;-80
2021/03/07 07:26:52;;;;;;;6.00;5.07;;;3.40;84.40;;;;;;5010941;28;20212;-81
2021/03/07 07:29:19;;;;;;;7.50;5.33;;;3.40;84.30;;;;;;5012230;28;20265;-80
2021/03/07 07:31:54;;;;;;;6.23;4.87;;;3.40;84.00;;;;;;5015526;28;20209;-83
2021/03/07 07:34:28;;;;;;;5.03;4.47;;;3.40;83.90;;;;;;5004304;28;20233;-81
2021/03/07 07:37:00;;;;;;;5.03;4.53;;;3.40;83.70;;;;;;5003772;28;20233;-82
2021/03/07 07:39:31;;;;;;;6.53;4.30;;;3.30;83.60;;;;;;5006540;28;20274;-82
2021/03/07 07:42:22;;;;;;;5.13;4.27;;;3.40;83.50;;;;;;5006351;28;20218;-81
2021/03/07 07:44:51;;;;;;;4.27;3.67;;;3.40;83.10;;;;;;5009915;28;20545;-81
2021/03/07 07:47:19;;;;;;;7.83;4.57;;;3.40;82.90;;;;;;5002780;28;20209;-83
2021/03/07 07:49:49;;;;;;;5.23;4.57;;;3.40;82.60;;;;;;5006789;28;20203;-83
2021/03/07 07:52:39;;;;;;;6.50;4.20;;;3.40;82.40;;;;;;5004369;28;20236;-81
2021/03/07 07:55:11;;;;;;;5.33;4.33;;;3.40;81.90;;;;;;5009037;28;20209;-81
2021/03/07 07:57:47;;;;;;;5.27;4.43;;;3.40;82.00;;;;;;5006479;28;20203;-80
2021/03/07 08:00:43;;;;;;;5.97;4.23;;;3.40;81.90;;;;;;5006525;28;20218;-81
2021/03/07 08:03:30;;;;;;;4.20;3.80;;;3.40;81.60;;;;;;5008488;28;20216;-83
2021/03/07 08:05:58;;;;;;;5.10;3.30;;;3.50;81.60;;;;;;5006547;28;20204;-83
2021/03/07 08:08:34;;;;;;;6.60;4.00;;;3.50;81.40;;;;;;5010937;28;20209;-83
2021/03/07 08:11:04;;;;;;;4.30;3.90;;;3.50;81.30;;;;;;5023256;28;20203;-81
2021/03/07 08:13:50;;;;;;;4.40;4.00;;;3.50;81.20;;;;;;5018094;28;20270;-82
2021/03/07 08:16:38;;;;;;;5.30;3.77;;;3.50;81.30;;;;;;5004565;28;20229;-83
2021/03/07 08:19:08;;;;;;;6.17;4.40;;;3.50;81.10;;;;;;5008239;28;20214;-82
2021/03/07 08:21:59;;;;;;;8.13;4.27;;;3.60;81.10;;;;;;5013217;28;20212;-82
2021/03/07 08:24:58;;;;;;;4.00;3.63;;;3.60;81.00;;;;;;5005539;28;20225;-80
2021/03/07 08:27:37;;;;;;;5.13;3.87;;;3.60;81.00;;;;;;5000911;28;20199;-83
2021/03/07 08:30:08;;;;;;;6.63;4.20;;;3.60;80.90;;;;;;5010777;28;20198;-84
2021/03/07 08:32:45;;;;;;;4.33;3.93;;;3.70;80.90;;;;;;5032100;28;20396;-81
2021/03/07 08:35:19;;;;;;;5.27;3.83;;;3.70;80.60;;;;;;5012983;28;20291;-80
2021/03/07 08:38:13;;;;;;;6.60;3.90;;;3.60;80.60;;;;;;5013708;28;20208;-81
2021/03/07 08:40:42;;;;;;;3.93;3.50;;;3.60;80.30;;;;;;5013398;28;20210;-83
2021/03/07 08:43:53;;;;;;;4.73;3.97;;;3.90;80.50;;;;;;5014149;28;20196;-81
2021/03/07 08:46:25;;;;;;;6.40;4.30;;;3.60;80.30;;;;;;5017772;28;20200;-83
2021/03/07 08:48:55;;;;;;;5.17;3.70;;;3.80;80.30;;;;;;5016479;28;20221;-84
2021/03/07 08:51:35;;;;;;;5.70;4.27;;;3.60;80.30;;;;;;5022299;28;20215;-82
2021/03/07 08:54:06;;;;;;;4.80;4.00;;;3.50;80.30;;;;;;5007845;28;20291;-82
2021/03/07 08:56:37;;;;;;;4.87;3.83;;;3.70;80.20;;;;;;5012946;28;20237;-80
2021/03/07 08:59:06;;;;;;;7.70;4.10;;;3.50;80.20;;;;;;5021448;28;20237;-81
2021/03/07 09:01:35;;;;;;;5.37;3.83;;;3.50;80.40;;;;;;5011774;28;20262;-80
2021/03/07 09:04:05;;;;;;;6.37;4.27;;;3.40;80.30;;;;;;5023672;28;20208;-81
2021/03/07 09:06:37;;;;;;;6.40;4.10;;;3.40;80.40;;;;;;5026153;28;20505;-83
2021/03/07 09:09:07;;;;;;;7.20;3.83;;;3.40;80.30;;;;;;5031223;28;20295;-81
2021/03/07 09:11:36;;;;;;;4.37;3.97;;;3.40;80.30;;;;;;5029345;28;20665;-83
2021/03/07 09:14:04;;;;;;;4.17;3.40;;;3.30;80.30;;;;;;5031311;28;20212;-82
2021/03/07 09:16:38;;;;;;;5.53;4.13;;;3.30;80.20;;;;;;5025962;28;20609;-83
2021/03/07 09:19:22;;;;;;;4.93;3.87;;;3.30;80.30;;;;;;5026689;28;20209;-81
2021/03/07 09:22:14;;;;;;;6.23;3.63;;;3.30;80.40;;;;;;5033551;28;20199;-81
2021/03/07 09:24:51;;;;;;;5.57;4.37;;;3.30;80.50;;;;;;5020721;28;20228;-81
2021/03/07 09:27:20;;;;;;;6.07;4.00;;;3.30;80.60;;;;;;5008939;28;20782;-83
2021/03/07 09:30:02;;;;;;;7.87;4.40;;;3.30;80.70;;;;;;5019831;28;20763;-82
2021/03/07 09:32:34;;;;;;;4.67;3.63;;;3.30;80.60;;;;;;4995951;28;20890;-83
2021/03/07 09:35:16;;;;;;;6.57;4.07;;;3.30;80.70;;;;;;5010783;28;20518;-82
2021/03/07 09:37:44;;;;;;;5.37;4.27;;;3.30;80.70;;;;;;5020699;28;20429;-82
2021/03/07 09:40:13;;;;;;;6.43;4.33;;;3.30;80.90;;;;;;5024970;28;20231;-82
2021/03/07 09:42:42;;;;;;;8.87;4.40;;;3.30;80.80;;;;;;5031938;28;20279;-82
2021/03/07 09:45:12;;;;;;;4.77;3.93;;;3.30;80.80;;;;;;5013875;28;20376;-81
2021/03/07 09:47:41;;;;;;;5.73;4.13;;;3.30;80.70;;;;;;4994837;28;20239;-83
2021/03/07 09:50:10;;;;;;;6.43;4.07;;;3.30;80.80;;;;;;5020811;28;20205;-82
2021/03/07 09:52:38;;;;;;;6.27;4.30;;;3.30;80.70;;;;;;5022943;28;20217;-83
2021/03/07 09:55:07;;;;;;;6.47;4.53;;;3.20;80.70;;;;;;5023460;28;20200;-81
2021/03/07 09:58:00;;;;;;;5.37;4.37;;;3.30;80.70;;;;;;5035634;28;20220;-83
2021/03/07 10:00:28;;;;;;;5.80;4.40;;;3.30;80.80;;;;;;4998017;28;20260;-80
2021/03/07 10:02:58;;;;;;;4.73;4.23;;;3.30;80.60;;;;;;5022754;28;20207;-82
2021/03/07 10:05:32;;;;;;;4.83;4.13;;;3.30;80.60;;;;;;5020941;28;20276;-84
2021/03/07 10:08:00;;;;;;;6.83;4.57;;;3.30;80.70;;;;;;5016755;28;20214;-83
2021/03/07 10:10:28;;;;;;;5.87;4.70;;;3.20;80.80;;;;;;5010660;28;20809;-81
2021/03/07 10:12:58;;;;;;;6.80;4.67;;;3.30;80.90;;;;;;5010927;28;20208;-82
2021/03/07 10:15:28;;;;;;;6.87;4.97;;;3.30;80.90;;;;;;5011120;28;21040;-84
2021/03/07 10:17:58;;;;;;;5.93;5.00;;;3.20;80.90;;;;;;5020196;28;20779;-83
2021/03/07 10:20:33;;;;;;;8.67;4.60;;;3.30;81.10;;;;;;5033480;28;20186;-83
2021/03/07 10:23:01;;;;;;;5.13;4.53;;;3.30;81.00;;;;;;5029846;28;20633;-82
2021/03/07 10:25:31;;;;;;;5.63;4.27;;;3.30;81.00;;;;;;5006047;28;20209;-81
2021/03/07 10:28:01;;;;;;;6.87;4.40;;;3.30;81.30;;;;;;5011003;28;20207;-81
2021/03/07 10:30:37;;;;;;;8.20;5.50;;;3.30;81.50;;;;;;5008913;28;20267;-83
2021/03/07 10:33:18;;;;;;;7.70;5.00;;;3.40;81.40;;;;;;5017164;28;20259;-81
2021/03/07 10:36:03;;;;;;;8.50;5.13;;;3.40;81.50;;;;;;5016904;28;20592;-83
2021/03/07 10:38:32;;;;;;;10.03;5.37;;;3.30;81.50;;;;;;5008116;28;21146;-82
2021/03/07 10:41:15;;;;;;;5.93;5.07;;;3.30;81.60;;;;;;5014004;28;20204;-81
2021/03/07 10:43:47;;;;;;;6.17;4.83;;;3.50;81.80;;;;;;5005015;28;20201;-81
2021/03/07 10:46:32;;;;;;;7.23;5.10;;;3.40;81.80;;;;;;5013790;28;20267;-82
2021/03/07 10:49:21;;;;;;;6.27;4.83;;;3.40;81.80;;;;;;5007944;28;20209;-82
2021/03/07 10:51:49;;;;;;;8.33;5.63;;;3.40;81.90;;;;;;5021521;28;20420;-81
2021/03/07 10:54:19;;;;;;;7.90;5.23;;;3.40;81.80;;;;;;5021860;28;20213;-82
2021/03/07 10:56:48;;;;;;;6.93;4.93;;;3.40;81.90;;;;;;5009678;28;20575;-80
2021/03/07 10:59:16;;;;;;;8.90;5.67;;;3.40;81.90;;;;;;5010411;28;20242;-81
2021/03/07 11:01:44;;;;;;;7.43;5.10;;;3.70;82.00;;;;;;5025449;28;20194;-83
2021/03/07 11:04:12;;;;;;;6.40;5.73;;;3.50;82.00;;;;;;5019811;28;20211;-84
2021/03/07 11:06:40;;;;;;;7.07;5.33;;;3.40;82.00;;;;;;5016514;28;20212;-81
2021/03/07 11:09:08;;;;;;;7.70;5.00;;;3.40;81.90;;;;;;5016713;28;20632;-83
2021/03/07 11:11:37;;;;;;;7.23;5.53;;;3.40;82.10;;;;;;5016855;28;20704;-83
2021/03/07 11:14:04;;;;;;;7.03;4.80;;;3.30;82.00;;;;;;5009318;28;20212;-81
2021/03/07 11:16:33;;;;;;;9.13;5.67;;;3.30;82.20;;;;;;5012258;28;20245;-81
2021/03/07 11:19:17;;;;;;;10.40;5.57;;;3.40;82.30;;;;;;5011594;28;20361;-81
2021/03/07 11:21:46;;;;;;;8.23;5.37;;;3.40;82.10;;;;;;5019481;28;20193;-82
2021/03/07 11:24:14;;;;;;;8.67;5.27;;;3.40;82.00;;;;;;5019946;28;20206;-83
2021/03/07 11:26:44;;;;;;;9.33;5.27;;;3.30;82.10;;;;;;5011877;28;20244;-82
2021/03/07 11:29:11;;;;;;;8.57;5.60;;;3.30;82.00;;;;;;5030567;28;20201;-82
2021/03/07 11:31:39;;;;;;;7.93;4.80;;;3.40;82.10;;;;;;5010207;28;20648;-83
2021/03/07 11:34:07;;;;;;;9.63;4.73;;;3.40;82.00;;;;;;5010851;28;20200;-81
2021/03/07 11:36:35;;;;;;;6.57;4.60;;;3.30;82.20;;;;;;5010508;28;20813;-83
2021/03/07 11:39:04;;;;;;;8.03;4.80;;;3.40;81.80;;;;;;5010649;28;20230;-83
2021/03/07 11:41:32;;;;;;;6.00;4.57;;;3.50;81.90;;;;;;5020980;28;20200;-83
2021/03/07 11:44:00;;;;;;;9.60;4.93;;;3.50;82.00;;;;;;5018812;28;20221;-80
2021/03/07 11:46:27;;;;;;;6.00;5.07;;;3.60;81.90;;;;;;5012224;28;20206;-82
2021/03/07 11:48:55;;;;;;;6.70;4.70;;;3.60;81.70;;;;;;5009433;28;20213;-83
2021/03/07 11:51:23;;;;;;;12.60;5.60;;;3.70;81.80;;;;;;5010070;28;20215;-83
2021/03/07 11:54:01;;;;;;;6.43;4.70;;;3.60;81.50;;;;;;5012839;28;20639;-82
2021/03/07 11:56:32;;;;;;;6.10;4.80;;;3.70;81.60;;;;;;5019044;28;20584;-83
2021/03/07 11:59:03;;;;;;;9.17;5.00;;;3.70;81.50;;;;;;5020511;28;20209;-82
2021/03/07 12:01:34;;;;;;;6.67;3.97;;;3.90;81.40;;;;;;5018336;28;20236;-80
2021/03/07 12:04:02;;;;;;;5.70;4.70;;;4.00;81.30;;;;;;5032594;28;20471;-81
2021/03/07 12:06:30;;;;;;;7.13;4.43;;;4.00;81.20;;;;;;5033839;28;20200;-80
2021/03/07 12:08:59;;;;;;;5.97;4.43;;;4.10;81.00;;;;;;5024852;28;20214;-82
2021/03/07 12:11:28;;;;;;;5.33;4.00;;;4.20;81.20;;;;;;5015458;28;20225;-83
2021/03/07 12:13:57;;;;;;;8.13;4.47;;;4.20;81.00;;;;;;5020122;28;20216;-80
2021/03/07 12:16:29;;;;;;;5.07;4.27;;;4.20;81.00;;;;;;5019592;28;20265;-82
2021/03/07 12:18:58;;;;;;;4.60;3.73;;;4.20;81.00;;;;;;5015625;28;20207;-82
2021/03/07 12:21:26;;;;;;;7.30;4.30;;;4.20;80.90;;;;;;5015093;28;20754;-83
2021/03/07 12:23:56;;;;;;;6.03;3.77;;;4.30;81.00;;;;;;5013897;28;20952;-82
2021/03/07 12:26:26;;;;;;;5.53;4.40;;;4.00;81.10;;;;;;5009912;28;20200;-83
2021/03/07 12:28:53;;;;;;;8.53;4.27;;;4.10;81.20;;;;;;5013925;28;20194;-82
2021/03/07 12:31:22;;;;;;;5.27;4.03;;;4.00;81.10;;;;;;5015422;28;20665;-81
2021/03/07 12:33:51;;;;;;;4.97;4.07;;;4.00;81.40;;;;;;5011614;28;20207;-82
2021/03/07 12:36:24;;;;;;;6.30;4.30;;;3.90;81.40;;;;;;5023063;28;20215;-83
2021/03/07 12:38:53;;;;;;;4.67;3.43;;;3.90;81.20;;;;;;5014424;28;20205;-83
2021/03/07 12:41:21;;;;;;;5.70;3.97;;;3.90;81.40;;;;;;5013730;28;20320;-82
2021/03/07 12:43:52;;;;;;;8.50;4.23;;;3.90;81.30;;;;;;5027503;28;20199;-84
2021/03/07 12:46:22;;;;;;;8.90;4.77;;;3.90;81.50;;;;;;5019144;28;20268;-81
2021/03/07 12:48:50;;;;;;;5.97;4.40;;;3.90;81.50;;;;;;5021513;28;20194;-82
2021/03/07 12:51:19;;;;;;;4.97;3.83;;;3.80;81.40;;;;;;5033894;28;20227;-81
2021/03/07 12:53:51;;;;;;;5.70;4.10;;;3.80;81.50;;;;;;5022344;28;20294;-83
2021/03/07 12:56:19;;;;;;;5.13;4.17;;;3.90;81.60;;;;;;5014655;28;20678;-83
2021/03/07 12:58:50;;;;;;;6.60;4.57;;;3.90;81.50;;;;;;4998443;28;20770;-83
2021/03/07 13:01:18;;;;;;;6.53;4.70;;;3.90;81.50;;;;;;5017943;28;20227;-83
2021/03/07 13:03:47;;;;;;;7.33;5.17;;;3.80;81.60;;;;;;5015698;28;20246;-81
2021/03/07 13:06:14;;;;;;;8.80;4.80;;;3.90;81.60;;;;;;5013940;28;20212;-80
2021/03/07 13:08:43;;;;;;;7.43;4.67;;;3.90;81.50;;;;;;5016834;28;20221;-82
2021/03/07 13:11:11;;;;;;;5.77;4.50;;;4.00;81.60;;;;;;5025750;28;20499;-82
2021/03/07 13:13:38;;;;;;;6.53;4.80;;;3.80;81.70;;;;;;5033454;28;21167;-82
2021/03/07 13:16:07;;;;;;;7.23;4.87;;;3.80;81.70;;;;;;5016296;28;20200;-82